createdAt,value
2023-05-14T00:00:41.550Z,10.70
2023-05-14T00:01:41.576Z,10.71
2023-05-14T00:02:41.687Z,10.75
2023-05-14T00:03:41.686Z,10.76
2023-05-14T00:04:41.723Z,10.76
2023-05-14T00:05:41.646Z,10.76
2023-05-14T00:06:41.640Z,10.73
2023-05-14T00:07:41.657Z,10.72
2023-05-14T00:08:41.728Z,10.70
2023-05-14T00:09:41.706Z,10.68
2023-05-14T00:10:41.727Z,10.69
2023-05-14T00:11:41.741Z,10.72
2023-05-14T00:12:41.754Z,10.78
2023-05-14T00:13:41.786Z,10.82
2023-05-14T00:14:41.776Z,10.86
2023-05-14T00:15:41.813Z,10.90
2023-05-14T00:16:41.771Z,10.94
2023-05-14T00:17:41.830Z,10.98
2023-05-14T00:18:41.833Z,11.02
2023-05-14T00:19:41.785Z,11.08
2023-05-14T00:20:41.801Z,11.13
2023-05-14T00:21:41.855Z,11.13
2023-05-14T00:22:41.914Z,11.15
2023-05-14T00:23:41.957Z,11.19
2023-05-14T00:24:42.021Z,11.20
2023-05-14T00:25:42.026Z,11.24
2023-05-14T00:26:42.074Z,11.28
2023-05-14T00:27:42.107Z,11.29
2023-05-14T00:28:42.160Z,11.30
2023-05-14T00:29:42.224Z,11.31
2023-05-14T00:30:42.211Z,11.31
2023-05-14T00:31:42.278Z,11.30
2023-05-14T00:32:42.362Z,11.28
2023-05-14T00:33:42.344Z,11.20
2023-05-14T00:34:42.424Z,11.21
2023-05-14T00:35:42.467Z,11.15
2023-05-14T00:36:42.519Z,11.14
2023-05-14T00:37:42.576Z,10.90
2023-05-14T00:38:42.681Z,10.92
2023-05-14T00:39:42.703Z,11.00
2023-05-14T00:40:42.685Z,11.08
2023-05-14T00:41:42.722Z,11.14
2023-05-14T00:42:42.764Z,11.16
2023-05-14T00:43:42.797Z,11.15
2023-05-14T00:44:42.858Z,11.19
2023-05-14T00:45:42.884Z,11.22
2023-05-14T00:46:42.968Z,11.24
2023-05-14T00:47:42.975Z,11.24
2023-05-14T00:48:42.935Z,11.26
2023-05-14T00:49:43.004Z,11.24
2023-05-14T00:50:43.029Z,11.22
2023-05-14T00:51:43.079Z,11.16
2023-05-14T00:52:43.175Z,11.11
2023-05-14T00:53:43.239Z,11.11
2023-05-14T00:54:43.310Z,10.95
2023-05-14T00:55:43.407Z,10.93
2023-05-14T00:56:43.448Z,10.88
2023-05-14T00:57:43.516Z,10.89
2023-05-14T00:58:43.599Z,10.91
2023-05-14T00:59:43.683Z,10.94
2023-05-14T01:00:43.716Z,10.89
2023-05-14T01:01:43.808Z,10.80
2023-05-14T01:02:43.980Z,10.83
2023-05-14T01:03:44.112Z,10.82
2023-05-14T01:04:44.034Z,10.71
2023-05-14T01:05:44.105Z,10.64
2023-05-14T01:06:44.169Z,10.68
2023-05-14T01:07:44.241Z,10.72
2023-05-14T01:08:44.314Z,10.72
2023-05-14T01:09:44.362Z,10.73
2023-05-14T01:10:44.396Z,10.76
2023-05-14T01:11:44.422Z,10.77
2023-05-14T01:12:44.457Z,10.75
2023-05-14T01:13:44.492Z,10.69
2023-05-14T01:14:44.546Z,10.66
2023-05-14T01:15:44.588Z,10.67
2023-05-14T01:16:44.678Z,10.66
2023-05-14T01:17:44.716Z,10.63
2023-05-14T01:18:44.759Z,10.62
2023-05-14T01:19:44.785Z,10.61
2023-05-14T01:20:44.817Z,10.62
2023-05-14T01:21:44.839Z,10.64
2023-05-14T01:22:44.867Z,10.64
2023-05-14T01:23:44.893Z,10.61
2023-05-14T01:24:44.996Z,10.59
2023-05-14T01:25:44.973Z,10.54
2023-05-14T01:26:44.983Z,10.48
2023-05-14T01:27:45.012Z,10.49
2023-05-14T01:28:45.042Z,10.51
2023-05-14T01:29:45.057Z,10.49
2023-05-14T01:30:45.079Z,10.43
2023-05-14T01:31:45.105Z,10.38
2023-05-14T01:32:45.199Z,10.42
2023-05-14T01:33:45.264Z,10.42
2023-05-14T01:34:45.304Z,10.44
2023-05-14T01:35:45.379Z,10.25
2023-05-14T01:36:45.429Z,10.15
2023-05-14T01:37:45.499Z,10.08
2023-05-14T01:38:45.589Z,10.14
2023-05-14T01:39:45.609Z,10.22
2023-05-14T01:40:45.657Z,10.28
2023-05-14T01:41:45.684Z,10.36
2023-05-14T01:42:45.745Z,10.44
2023-05-14T01:43:45.769Z,10.54
2023-05-14T01:44:45.806Z,10.62
2023-05-14T01:45:45.989Z,10.68
2023-05-14T01:46:45.929Z,10.75
2023-05-14T01:47:46.009Z,10.78
2023-05-14T01:48:46.044Z,10.83
2023-05-14T01:49:46.125Z,10.83
2023-05-14T01:50:46.160Z,10.86
2023-05-14T01:51:46.202Z,10.90
2023-05-14T01:52:46.266Z,10.95
2023-05-14T01:53:46.304Z,10.95
2023-05-14T01:54:46.352Z,10.97
2023-05-14T01:55:46.409Z,11.01
2023-05-14T01:56:46.460Z,11.06
2023-05-14T01:57:46.497Z,11.10
2023-05-14T01:58:46.550Z,11.11
2023-05-14T01:59:46.568Z,11.16
2023-05-14T02:00:46.629Z,11.12
2023-05-14T02:01:46.680Z,11.13
2023-05-14T02:02:46.686Z,11.17
2023-05-14T02:03:46.724Z,11.18
2023-05-14T02:04:46.728Z,11.20
2023-05-14T02:05:46.804Z,11.20
2023-05-14T02:06:46.839Z,11.21
2023-05-14T02:07:46.847Z,11.11
2023-05-14T02:08:46.885Z,11.10
2023-05-14T02:09:46.917Z,11.13
2023-05-14T02:10:46.958Z,11.18
2023-05-14T02:11:46.999Z,11.24
2023-05-14T02:12:47.031Z,11.27
2023-05-14T02:13:47.064Z,11.29
2023-05-14T02:14:47.094Z,11.30
2023-05-14T02:15:47.163Z,11.32
2023-05-14T02:16:47.165Z,11.35
2023-05-14T02:17:47.218Z,11.39
2023-05-14T02:18:47.295Z,11.38
2023-05-14T02:19:47.255Z,11.37
2023-05-14T02:20:47.263Z,11.36
2023-05-14T02:21:47.313Z,11.35
2023-05-14T02:22:47.335Z,11.36
2023-05-14T02:23:47.338Z,11.39
2023-05-14T02:24:47.371Z,11.38
2023-05-14T02:25:47.416Z,11.35
2023-05-14T02:26:47.432Z,11.32
2023-05-14T02:27:47.491Z,11.34
2023-05-14T02:28:47.519Z,11.37
2023-05-14T02:29:47.570Z,11.39
2023-05-14T02:30:47.589Z,11.42
2023-05-14T02:31:47.675Z,11.44
2023-05-14T02:32:47.770Z,11.45
2023-05-14T02:33:47.682Z,11.46
2023-05-14T02:34:47.700Z,11.48
2023-05-14T02:35:47.730Z,11.45
2023-05-14T02:36:47.767Z,11.42
2023-05-14T02:37:47.869Z,11.42
2023-05-14T02:38:47.820Z,11.40
2023-05-14T02:39:47.833Z,11.41
2023-05-14T02:40:47.869Z,11.43
2023-05-14T02:41:47.910Z,11.43
2023-05-14T02:42:47.944Z,11.41
2023-05-14T02:43:47.988Z,11.40
2023-05-14T02:44:48.024Z,11.41
2023-05-14T02:45:48.052Z,11.43
2023-05-14T02:46:48.125Z,11.45
2023-05-14T02:47:48.157Z,11.46
2023-05-14T02:48:48.129Z,11.46
2023-05-14T02:49:48.159Z,11.46
2023-05-14T02:50:48.191Z,11.48
2023-05-14T02:51:48.215Z,11.51
2023-05-14T02:52:48.249Z,11.53
2023-05-14T02:53:48.289Z,11.49
2023-05-14T02:54:48.321Z,11.49
2023-05-14T02:55:48.333Z,11.52
2023-05-14T02:56:48.391Z,11.49
2023-05-14T02:57:48.379Z,11.48
2023-05-14T02:58:48.396Z,11.43
2023-05-14T02:59:48.430Z,11.37
2023-05-14T03:00:48.468Z,11.40
2023-05-14T03:01:48.500Z,11.44
2023-05-14T03:02:48.607Z,11.48
2023-05-14T03:03:48.527Z,11.48
2023-05-14T03:04:48.554Z,11.50
2023-05-14T03:05:48.589Z,11.50
2023-05-14T03:06:48.606Z,11.52
2023-05-14T03:07:48.616Z,11.51
2023-05-14T03:08:48.632Z,11.51
2023-05-14T03:09:48.653Z,11.40
2023-05-14T03:10:48.642Z,11.25
2023-05-14T03:11:48.648Z,11.25
2023-05-14T03:12:48.652Z,11.32
2023-05-14T03:13:48.663Z,11.37
2023-05-14T03:14:48.673Z,11.41
2023-05-14T03:15:48.777Z,11.46
2023-05-14T03:16:48.749Z,11.48
2023-05-14T03:17:48.779Z,11.47
2023-05-14T03:18:48.780Z,11.49
2023-05-14T03:19:48.785Z,11.46
2023-05-14T03:20:48.832Z,11.42
2023-05-14T03:21:48.831Z,11.40
2023-05-14T03:22:48.880Z,11.38
2023-05-14T03:23:48.919Z,11.38
2023-05-14T03:24:48.960Z,11.36
2023-05-14T03:25:49.074Z,11.35
2023-05-14T03:26:49.076Z,11.35
2023-05-14T03:27:49.124Z,11.31
2023-05-14T03:28:49.195Z,11.31
2023-05-14T03:29:49.241Z,11.28
2023-05-14T03:30:49.329Z,11.24
2023-05-14T03:31:49.646Z,11.17
2023-05-14T03:32:49.538Z,11.16
2023-05-14T03:33:49.485Z,11.04
2023-05-14T03:34:49.538Z,11.01
2023-05-14T03:35:49.599Z,10.96
2023-05-14T03:36:49.648Z,10.93
2023-05-14T03:37:49.704Z,10.93
2023-05-14T03:38:49.742Z,10.95
2023-05-14T03:39:49.798Z,10.90
2023-05-14T03:40:49.856Z,10.88
2023-05-14T03:41:50.058Z,10.90
2023-05-14T03:42:50.008Z,10.88
2023-05-14T03:43:50.072Z,10.89
2023-05-14T03:44:50.095Z,10.77
2023-05-14T03:45:50.149Z,10.72
2023-05-14T03:46:50.205Z,10.69
2023-05-14T03:47:50.432Z,10.71
2023-05-14T03:48:50.260Z,10.73
2023-05-14T03:49:50.266Z,10.75
2023-05-14T03:50:50.300Z,10.73
2023-05-14T03:51:50.353Z,10.70
2023-05-14T03:52:50.398Z,10.66
2023-05-14T03:53:50.463Z,10.64
2023-05-14T03:54:50.523Z,10.55
2023-05-14T03:55:50.596Z,10.50
2023-05-14T03:56:50.666Z,10.46
2023-05-14T03:57:50.783Z,10.32
2023-05-14T03:58:50.838Z,10.17
2023-05-14T03:59:50.921Z,10.14
2023-05-14T04:00:50.976Z,10.07
2023-05-14T04:01:51.047Z,9.91
2023-05-14T04:02:51.210Z,9.86
2023-05-14T04:03:51.481Z,9.82
2023-05-14T04:04:51.488Z,9.80
2023-05-14T04:05:51.435Z,9.82
2023-05-14T04:06:51.520Z,9.78
2023-05-14T04:07:51.580Z,9.68
2023-05-14T04:08:51.646Z,9.72
2023-05-14T04:09:51.722Z,9.75
2023-05-14T04:10:51.817Z,9.80
2023-05-14T04:11:51.867Z,9.77
2023-05-14T04:12:51.937Z,9.73
2023-05-14T04:13:52.026Z,9.74
2023-05-14T04:14:52.059Z,9.77
2023-05-14T04:15:52.165Z,9.80
2023-05-14T04:16:52.818Z,9.76
2023-05-14T04:17:52.291Z,9.72
2023-05-14T04:18:52.396Z,9.74
2023-05-14T04:19:52.414Z,9.77
2023-05-14T04:20:52.500Z,9.82
2023-05-14T04:21:52.583Z,9.82
2023-05-14T04:22:52.651Z,9.83
2023-05-14T04:23:52.723Z,9.81
2023-05-14T04:24:52.768Z,9.86
2023-05-14T04:25:52.848Z,9.81
2023-05-14T04:26:52.948Z,9.83
2023-05-14T04:27:53.047Z,9.75
2023-05-14T04:28:53.110Z,9.74
2023-05-14T04:29:53.184Z,9.70
2023-05-14T04:30:53.204Z,9.71
2023-05-14T04:31:53.312Z,9.71
2023-05-14T04:32:53.387Z,9.77
2023-05-14T04:33:53.438Z,9.81
2023-05-14T04:34:53.514Z,9.88
2023-05-14T04:35:53.588Z,9.93
2023-05-14T04:36:53.643Z,9.98
2023-05-14T04:37:53.684Z,10.04
2023-05-14T04:38:53.739Z,10.10
2023-05-14T04:39:53.780Z,10.15
2023-05-14T04:40:53.844Z,10.17
2023-05-14T04:41:53.917Z,10.18
2023-05-14T04:42:53.915Z,10.14
2023-05-14T04:43:53.995Z,10.06
2023-05-14T04:44:54.050Z,10.05
2023-05-14T04:45:54.316Z,10.06
2023-05-14T04:46:54.259Z,10.08
2023-05-14T04:47:54.330Z,10.09
2023-05-14T04:48:54.378Z,10.09
2023-05-14T04:49:54.496Z,10.13
2023-05-14T04:50:54.573Z,10.12
2023-05-14T04:51:54.596Z,10.07
2023-05-14T04:52:54.628Z,10.13
2023-05-14T04:53:54.671Z,10.16
2023-05-14T04:54:54.741Z,10.19
2023-05-14T04:55:54.805Z,10.19
2023-05-14T04:56:54.875Z,10.16
2023-05-14T04:57:54.954Z,10.16
2023-05-14T04:58:55.037Z,10.17
2023-05-14T04:59:55.132Z,10.14
2023-05-14T05:00:55.274Z,10.13
2023-05-14T05:01:55.317Z,10.15
2023-05-14T05:02:55.400Z,10.16
2023-05-14T05:03:55.515Z,10.13
2023-05-14T05:04:55.533Z,10.13
2023-05-14T05:05:55.597Z,10.18
2023-05-14T05:06:55.676Z,10.19
2023-05-14T05:07:55.753Z,10.25
2023-05-14T05:08:55.800Z,10.29
2023-05-14T05:09:55.885Z,10.32
2023-05-14T05:10:55.920Z,10.29
2023-05-14T05:11:55.948Z,10.28
2023-05-14T05:12:55.978Z,10.30
2023-05-14T05:13:56.012Z,10.30
2023-05-14T05:14:56.063Z,10.32
2023-05-14T05:15:56.466Z,10.32
2023-05-14T05:16:56.169Z,10.32
2023-05-14T05:17:56.331Z,10.40
2023-05-14T05:18:56.315Z,10.37
2023-05-14T05:19:56.351Z,10.41
2023-05-14T05:20:56.416Z,10.46
2023-05-14T05:21:56.446Z,10.51
2023-05-14T05:22:56.463Z,10.57
2023-05-14T05:23:56.489Z,10.63
2023-05-14T05:24:56.548Z,10.63
2023-05-14T05:25:56.672Z,10.62
2023-05-14T05:26:56.671Z,10.64
2023-05-14T05:27:56.728Z,10.67
2023-05-14T05:28:56.759Z,10.68
2023-05-14T05:29:56.819Z,10.72
2023-05-14T05:30:56.914Z,10.77
2023-05-14T05:31:56.991Z,10.81
2023-05-14T05:32:57.055Z,10.82
2023-05-14T05:33:57.137Z,10.83
2023-05-14T05:34:57.194Z,10.79
2023-05-14T05:35:57.219Z,10.74
2023-05-14T05:36:57.263Z,10.71
2023-05-14T05:37:59.216Z,10.71
2023-05-14T05:38:57.362Z,10.69
2023-05-14T05:39:57.370Z,10.75
2023-05-14T05:40:57.452Z,10.77
2023-05-14T05:41:57.422Z,10.63
2023-05-14T05:42:57.462Z,10.59
2023-05-14T05:43:57.498Z,10.44
2023-05-14T05:44:57.550Z,10.36
2023-05-14T05:45:57.636Z,10.44
2023-05-14T05:46:57.804Z,10.46
2023-05-14T05:47:57.735Z,10.44
2023-05-14T05:48:57.732Z,10.47
2023-05-14T05:49:57.761Z,10.50
2023-05-14T05:50:57.842Z,10.54
2023-05-14T05:51:57.789Z,10.57
2023-05-14T05:52:57.796Z,10.62
2023-05-14T05:53:57.836Z,10.65
2023-05-14T05:54:57.865Z,10.64
2023-05-14T05:55:57.920Z,10.60
2023-05-14T05:56:58.039Z,10.63
2023-05-14T05:57:58.088Z,10.70
2023-05-14T05:58:58.162Z,10.80
2023-05-14T05:59:58.210Z,10.92
2023-05-14T06:00:58.232Z,10.99
2023-05-14T06:01:58.306Z,11.08
2023-05-14T06:02:58.291Z,11.11
2023-05-14T06:03:58.302Z,11.12
2023-05-14T06:04:58.403Z,11.16
2023-05-14T06:05:58.442Z,11.24
2023-05-14T06:06:58.469Z,11.33
2023-05-14T06:07:58.537Z,11.38
2023-05-14T06:08:58.614Z,11.41
2023-05-14T06:09:58.706Z,11.43
2023-05-14T06:10:58.777Z,11.53
2023-05-14T06:11:58.835Z,11.48
2023-05-14T06:12:58.899Z,11.49
2023-05-14T06:13:58.950Z,11.50
2023-05-14T06:14:58.997Z,11.50
2023-05-14T06:15:59.020Z,11.56
2023-05-14T06:16:59.141Z,11.56
2023-05-14T06:17:59.237Z,11.65
2023-05-14T06:18:59.275Z,11.73
2023-05-14T06:19:59.238Z,11.78
2023-05-14T06:20:59.328Z,11.75
2023-05-14T06:21:59.382Z,11.62
2023-05-14T06:22:59.467Z,11.57
2023-05-14T06:23:59.556Z,11.63
2023-05-14T06:24:59.658Z,11.64
2023-05-14T06:25:59.718Z,11.60
2023-05-14T06:26:59.786Z,11.51
2023-05-14T06:27:59.880Z,11.42
2023-05-14T06:28:59.949Z,11.43
2023-05-14T06:30:00.010Z,11.59
2023-05-14T06:31:00.082Z,11.78
2023-05-14T06:32:00.359Z,11.85
2023-05-14T06:33:00.244Z,12.00
2023-05-14T06:34:00.196Z,12.08
2023-05-14T06:35:00.255Z,12.12
2023-05-14T06:36:00.327Z,12.23
2023-05-14T06:37:00.345Z,12.38
2023-05-14T06:38:00.418Z,12.52
2023-05-14T06:39:00.431Z,12.63
2023-05-14T06:40:00.491Z,12.65
2023-05-14T06:41:00.523Z,12.70
2023-05-14T06:42:00.563Z,12.66
2023-05-14T06:43:00.620Z,12.63
2023-05-14T06:44:00.649Z,12.72
2023-05-14T06:46:30.129Z,12.69
2023-05-14T06:47:20.544Z,12.73
2023-05-14T06:48:20.628Z,12.73
2023-05-14T06:49:20.567Z,12.77
2023-05-14T06:50:20.583Z,12.79
2023-05-14T06:51:20.602Z,12.72
2023-05-14T06:52:20.564Z,12.76
2023-05-14T06:53:20.581Z,12.76
2023-05-14T06:54:20.602Z,12.78
2023-05-14T06:55:20.540Z,12.81
2023-05-14T06:56:20.528Z,12.76
2023-05-14T06:57:20.536Z,12.80
2023-05-14T06:58:20.504Z,12.77
2023-05-14T06:59:20.483Z,12.91
2023-05-14T07:00:20.484Z,13.03
2023-05-14T07:01:20.436Z,13.10
2023-05-14T07:02:21.158Z,13.17
2023-05-14T07:03:20.365Z,13.23
2023-05-14T07:04:20.372Z,13.34
2023-05-14T07:05:20.299Z,13.46
2023-05-14T07:06:20.294Z,13.59
2023-05-14T07:07:20.230Z,13.67
2023-05-14T07:08:20.204Z,13.72
2023-05-14T07:09:20.196Z,13.75
2023-05-14T07:10:20.135Z,13.59
2023-05-14T07:11:20.120Z,13.48
2023-05-14T07:12:20.188Z,13.25
2023-05-14T07:13:20.211Z,13.28
2023-05-14T07:14:20.235Z,13.33
2023-05-14T07:15:20.236Z,13.35
2023-05-14T07:16:20.228Z,13.28
2023-05-14T07:17:20.349Z,13.39
2023-05-14T07:18:20.254Z,13.49
2023-05-14T07:19:20.210Z,13.63
2023-05-14T07:20:20.194Z,13.71
2023-05-14T07:21:20.156Z,13.84
2023-05-14T07:22:20.138Z,13.89
2023-05-14T07:23:20.227Z,14.02
2023-05-14T07:24:20.103Z,14.13
2023-05-14T07:25:20.110Z,14.13
2023-05-14T07:26:20.104Z,14.07
2023-05-14T07:27:20.085Z,14.12
2023-05-14T07:28:20.076Z,14.15
2023-05-14T07:29:20.082Z,14.23
2023-05-14T07:30:20.094Z,14.30
2023-05-14T07:31:20.262Z,14.30
2023-05-14T07:32:20.102Z,14.29
2023-05-14T07:33:20.081Z,14.34
2023-05-14T07:34:20.067Z,14.41
2023-05-14T07:35:20.101Z,14.48
2023-05-14T07:36:20.125Z,14.59
2023-05-14T07:37:21.025Z,14.66
2023-05-14T07:38:20.116Z,14.62
2023-05-14T07:39:20.066Z,14.55
2023-05-14T07:40:20.035Z,14.53
2023-05-14T07:41:20.037Z,14.51
2023-05-14T07:42:34.614Z,14.58
2023-05-14T07:43:19.941Z,14.64
2023-05-14T07:44:19.893Z,14.77
2023-05-14T07:45:19.849Z,14.84
2023-05-14T07:46:19.812Z,14.94
2023-05-14T07:47:19.806Z,14.96
2023-05-14T07:48:19.775Z,15.03
2023-05-14T07:49:19.674Z,15.01
2023-05-14T07:50:19.637Z,14.93
2023-05-14T07:51:19.602Z,14.98
2023-05-14T07:52:19.567Z,14.95
2023-05-14T07:53:19.526Z,14.92
2023-05-14T07:54:19.472Z,14.91
2023-05-14T07:55:19.436Z,14.82
2023-05-14T07:56:19.405Z,14.84
2023-05-14T07:57:19.396Z,14.91
2023-05-14T07:58:19.321Z,14.73
2023-05-14T07:59:19.308Z,14.71
2023-05-14T08:00:19.268Z,14.76
2023-05-14T08:01:19.238Z,14.82
2023-05-14T08:02:19.230Z,14.70
2023-05-14T08:03:19.280Z,14.69
2023-05-14T08:04:19.184Z,14.65
2023-05-14T08:05:19.132Z,14.55
2023-05-14T08:06:19.103Z,14.47
2023-05-14T08:07:19.079Z,14.50
2023-05-14T08:08:19.070Z,14.46
2023-05-14T08:09:19.052Z,14.40
2023-05-14T08:10:19.067Z,14.46
2023-05-14T08:11:19.055Z,14.48
2023-05-14T08:12:19.003Z,14.41
2023-05-14T08:13:19.008Z,14.45
2023-05-14T08:14:18.946Z,14.39
2023-05-14T08:15:18.929Z,14.44
2023-05-14T08:16:18.918Z,14.48
2023-05-14T08:17:18.917Z,14.46
2023-05-14T08:18:18.844Z,14.48
2023-05-14T08:19:18.999Z,14.42
2023-05-14T08:20:18.890Z,14.37
2023-05-14T08:21:18.864Z,14.29
2023-05-14T08:22:18.882Z,14.22
2023-05-14T08:23:18.928Z,14.14
2023-05-14T08:24:18.976Z,14.08
2023-05-14T08:25:19.011Z,14.13
2023-05-14T08:26:19.051Z,14.09
2023-05-14T08:27:19.110Z,14.12
2023-05-14T08:28:19.110Z,14.10
2023-05-14T08:29:19.184Z,14.04
2023-05-14T08:30:19.193Z,13.85
2023-05-14T08:31:19.301Z,13.76
2023-05-14T08:32:23.383Z,13.74
2023-05-14T08:33:19.229Z,13.64
2023-05-14T08:34:19.229Z,13.72
2023-05-14T08:35:19.208Z,13.78
2023-05-14T08:36:19.197Z,13.75
2023-05-14T08:37:19.204Z,13.70
2023-05-14T08:38:19.199Z,13.71
2023-05-14T08:39:19.219Z,13.77
2023-05-14T08:40:19.229Z,13.72
2023-05-14T08:41:19.235Z,13.64
2023-05-14T08:42:19.246Z,13.55
2023-05-14T08:43:19.250Z,13.55
2023-05-14T08:44:19.260Z,13.64
2023-05-14T08:45:19.276Z,13.69
2023-05-14T08:46:19.244Z,13.81
2023-05-14T08:47:19.256Z,13.80
2023-05-14T08:48:19.322Z,13.83
2023-05-14T08:49:19.247Z,13.92
2023-05-14T08:50:21.000Z,14.11
2023-05-14T08:51:19.218Z,14.28
2023-05-14T08:52:19.175Z,14.44
2023-05-14T08:53:19.131Z,14.58
2023-05-14T08:54:19.094Z,14.72
2023-05-14T08:55:19.069Z,14.84
2023-05-14T08:56:19.044Z,14.95
2023-05-14T08:57:18.980Z,14.89
2023-05-14T08:58:18.950Z,14.92
2023-05-14T08:59:19.642Z,15.00
2023-05-14T09:00:18.896Z,15.07
2023-05-14T09:01:18.898Z,15.20
2023-05-14T09:02:18.791Z,15.32
2023-05-14T09:03:18.798Z,15.44
2023-05-14T09:04:18.855Z,15.50
2023-05-14T09:05:18.651Z,15.54
2023-05-14T09:06:18.618Z,15.67
2023-05-14T09:07:18.569Z,15.75
2023-05-14T09:08:18.529Z,15.88
2023-05-14T09:09:18.513Z,15.78
2023-05-14T09:10:18.461Z,15.86
2023-05-14T09:11:18.407Z,16.03
2023-05-14T09:12:18.367Z,16.16
2023-05-14T09:13:18.300Z,16.33
2023-05-14T09:14:18.260Z,16.27
2023-05-14T09:15:18.199Z,16.34
2023-05-14T09:16:18.148Z,16.38
2023-05-14T09:17:18.117Z,16.35
2023-05-14T09:18:18.027Z,16.50
2023-05-14T09:19:18.051Z,16.62
2023-05-14T09:20:17.948Z,16.70
2023-05-14T09:21:17.916Z,16.91
2023-05-14T09:22:17.905Z,16.98
2023-05-14T09:23:17.875Z,17.08
2023-05-14T09:24:17.860Z,17.06
2023-05-14T09:25:17.881Z,17.11
2023-05-14T09:26:17.857Z,17.01
2023-05-14T09:27:17.859Z,17.01
2023-05-14T09:28:17.735Z,17.04
2023-05-14T09:29:17.714Z,17.04
2023-05-14T09:30:17.661Z,17.11
2023-05-14T09:31:17.693Z,17.20
2023-05-14T09:32:17.647Z,17.16
2023-05-14T09:33:17.662Z,17.20
2023-05-14T09:34:17.663Z,17.22
2023-05-14T09:35:17.894Z,17.18
2023-05-14T09:36:17.537Z,17.19
2023-05-14T09:37:17.491Z,17.11
2023-05-14T09:38:17.465Z,17.10
2023-05-14T09:39:17.441Z,17.06
2023-05-14T09:40:17.429Z,17.12
2023-05-14T09:41:17.414Z,17.18
2023-05-14T09:42:17.353Z,17.24
2023-05-14T09:43:17.328Z,17.10
2023-05-14T09:44:17.276Z,17.06
2023-05-14T09:45:17.240Z,17.08
2023-05-14T09:46:17.228Z,16.99
2023-05-14T09:47:17.301Z,16.87
2023-05-14T09:48:17.222Z,16.95
2023-05-14T09:49:17.178Z,17.08
2023-05-14T09:50:17.109Z,17.09
2023-05-14T09:51:17.098Z,17.10
2023-05-14T09:52:17.073Z,16.93
2023-05-14T09:53:17.021Z,16.92
2023-05-14T09:54:16.998Z,16.95
2023-05-14T09:55:16.988Z,16.95
2023-05-14T09:56:16.943Z,16.90
2023-05-14T09:57:16.943Z,16.90
2023-05-14T09:58:16.913Z,16.83
2023-05-14T09:59:16.922Z,16.83
2023-05-14T10:00:16.883Z,16.81
2023-05-14T10:01:16.877Z,16.71
2023-05-14T10:02:16.805Z,16.74
2023-05-14T10:03:19.750Z,16.79
2023-05-14T10:04:16.789Z,16.74
2023-05-14T10:05:16.703Z,16.61
2023-05-14T10:06:16.639Z,16.50
2023-05-14T10:07:16.578Z,16.52
2023-05-14T10:08:16.527Z,16.55
2023-05-14T10:09:16.462Z,16.60
2023-05-14T10:10:16.432Z,16.62
2023-05-14T10:11:16.363Z,16.55
2023-05-14T10:12:16.327Z,16.28
2023-05-14T10:13:16.308Z,16.22
2023-05-14T10:14:15.274Z,16.06
2023-05-14T10:15:16.255Z,15.91
2023-05-14T10:16:16.227Z,15.82
2023-05-14T10:17:16.248Z,15.71
2023-05-14T10:18:16.276Z,15.61
2023-05-14T10:19:16.247Z,15.54
2023-05-14T10:20:16.179Z,15.50
2023-05-14T10:21:16.207Z,15.43
2023-05-14T10:22:16.171Z,15.46
2023-05-14T10:23:16.155Z,15.52
2023-05-14T10:24:16.125Z,15.47
2023-05-14T10:25:16.104Z,15.42
2023-05-14T10:26:16.094Z,15.47
2023-05-14T10:27:16.131Z,15.66
2023-05-14T10:28:16.053Z,15.79
2023-05-14T10:29:16.064Z,15.93
2023-05-14T10:30:16.071Z,15.97
2023-05-14T10:31:16.188Z,16.07
2023-05-14T10:32:16.128Z,16.08
2023-05-14T10:33:16.198Z,16.22
2023-05-14T10:34:16.121Z,16.28
2023-05-14T10:35:16.147Z,16.31
2023-05-14T10:36:16.213Z,16.31
2023-05-14T10:37:16.213Z,16.37
2023-05-14T10:38:16.179Z,16.39
2023-05-14T10:39:16.192Z,16.39
2023-05-14T10:40:16.273Z,16.50
2023-05-14T10:41:16.166Z,16.59
2023-05-14T10:42:16.149Z,16.64
2023-05-14T10:43:16.109Z,16.72
2023-05-14T10:44:16.100Z,16.76
2023-05-14T10:45:16.104Z,16.77
2023-05-14T10:46:16.146Z,16.62
2023-05-14T10:47:16.124Z,16.55
2023-05-14T10:48:16.205Z,16.37
2023-05-14T10:49:19.327Z,16.42
2023-05-14T10:50:16.098Z,16.49
2023-05-14T10:51:16.089Z,16.54
2023-05-14T10:52:15.979Z,16.62
2023-05-14T10:53:15.968Z,16.66
2023-05-14T10:54:15.871Z,16.70
2023-05-14T10:55:15.831Z,16.72
2023-05-14T10:56:15.790Z,16.81
2023-05-14T10:57:15.732Z,16.96
2023-05-14T10:58:15.705Z,16.87
2023-05-14T10:59:15.642Z,16.74
2023-05-14T11:00:15.636Z,16.75
2023-05-14T11:01:15.577Z,16.81
2023-05-14T11:02:15.574Z,16.79
2023-05-14T11:03:15.634Z,16.74
2023-05-14T11:04:15.503Z,16.72
2023-05-14T11:05:15.666Z,16.68
2023-05-14T11:06:15.431Z,16.66
2023-05-14T11:07:15.404Z,16.71
2023-05-14T11:08:15.356Z,16.68
2023-05-14T11:09:15.361Z,16.63
2023-05-14T11:10:15.367Z,16.68
2023-05-14T11:11:15.265Z,16.79
2023-05-14T11:12:15.253Z,16.83
2023-05-14T11:13:15.181Z,16.79
2023-05-14T11:14:15.135Z,16.87
2023-05-14T11:15:15.099Z,16.93
2023-05-14T11:16:22.443Z,17.04
2023-05-14T11:17:15.066Z,17.06
2023-05-14T11:18:14.939Z,17.10
2023-05-14T11:19:14.935Z,17.06
2023-05-14T11:20:14.848Z,17.04
2023-05-14T11:21:14.789Z,16.89
2023-05-14T11:22:14.741Z,16.84
2023-05-14T11:23:14.690Z,16.89
2023-05-14T11:24:14.607Z,17.02
2023-05-14T11:25:15.124Z,17.06
2023-05-14T11:26:14.501Z,16.98
2023-05-14T11:27:14.428Z,17.01
2023-05-14T11:28:14.391Z,16.97
2023-05-14T11:29:14.338Z,16.90
2023-05-14T11:30:14.327Z,16.81
2023-05-14T11:31:14.322Z,16.91
2023-05-14T11:32:14.235Z,17.04
2023-05-14T11:33:14.245Z,17.05
2023-05-14T11:34:14.133Z,17.08
2023-05-14T11:35:14.089Z,17.20
2023-05-14T11:36:14.008Z,17.24
2023-05-14T11:37:13.946Z,17.28
2023-05-14T11:38:13.922Z,17.34
2023-05-14T11:39:13.838Z,17.21
2023-05-14T11:40:13.790Z,17.14
2023-05-14T11:41:13.846Z,17.12
2023-05-14T11:42:13.693Z,17.06
2023-05-14T11:43:13.646Z,17.18
2023-05-14T11:44:13.589Z,17.30
2023-05-14T11:45:13.547Z,17.33
2023-05-14T11:46:13.497Z,17.35
2023-05-14T11:47:13.429Z,17.25
2023-05-14T11:48:13.490Z,17.25
2023-05-14T11:49:13.328Z,17.24
2023-05-14T11:50:13.311Z,17.27
2023-05-14T11:51:13.262Z,17.19
2023-05-14T11:52:13.291Z,17.14
2023-05-14T11:53:13.256Z,17.05
2023-05-14T11:54:13.281Z,17.03
2023-05-14T11:55:13.300Z,17.06
2023-05-14T11:56:13.299Z,17.00
2023-05-14T11:57:13.365Z,16.98
2023-05-14T11:58:13.339Z,17.01
2023-05-14T11:59:13.322Z,17.08
2023-05-14T12:00:13.342Z,17.16
2023-05-14T12:01:13.314Z,17.26
2023-05-14T12:02:13.364Z,17.35
2023-05-14T12:03:13.375Z,17.42
2023-05-14T12:04:13.295Z,17.40
2023-05-14T12:05:13.289Z,17.23
2023-05-14T12:06:13.160Z,17.07
2023-05-14T12:07:13.124Z,16.86
2023-05-14T12:08:13.043Z,16.77
2023-05-14T12:09:12.967Z,16.95
2023-05-14T12:10:12.908Z,17.12
2023-05-14T12:11:12.858Z,17.28
2023-05-14T12:12:12.864Z,17.39
2023-05-14T12:13:12.721Z,17.44
2023-05-14T12:14:12.662Z,17.48
2023-05-14T12:15:12.670Z,17.50
2023-05-14T12:16:12.731Z,17.48
2023-05-14T12:17:12.662Z,17.46
2023-05-14T12:18:23.482Z,17.45
2023-05-14T12:19:12.587Z,17.44
2023-05-14T12:20:12.634Z,17.51
2023-05-14T12:21:12.413Z,17.55
2023-05-14T12:22:12.333Z,17.56
2023-05-14T12:23:12.264Z,17.61
2023-05-14T12:24:12.183Z,17.65
2023-05-14T12:25:12.095Z,17.66
2023-05-14T12:26:12.025Z,17.65
2023-05-14T12:27:11.948Z,17.60
2023-05-14T12:28:11.883Z,17.47
2023-05-14T12:29:11.831Z,17.39
2023-05-14T12:31:10.739Z,17.05
2023-05-14T12:32:11.648Z,16.89
2023-05-14T12:33:11.646Z,16.60
2023-05-14T12:34:11.591Z,16.44
2023-05-14T12:35:11.549Z,16.44
2023-05-14T12:36:21.347Z,16.45
2023-05-14T12:37:11.460Z,16.43
2023-05-14T12:38:11.435Z,16.26
2023-05-14T12:39:11.391Z,16.16
2023-05-14T12:40:11.379Z,16.08
2023-05-14T12:41:11.342Z,16.03
2023-05-14T12:42:11.313Z,16.06
2023-05-14T12:43:11.272Z,16.05
2023-05-14T12:44:11.251Z,16.10
2023-05-14T12:45:11.245Z,16.05
2023-05-14T12:46:11.169Z,15.96
2023-05-14T12:47:11.206Z,15.89
2023-05-14T12:48:11.152Z,15.81
2023-05-14T12:49:11.080Z,15.70
2023-05-14T12:50:11.066Z,15.67
2023-05-14T12:51:11.060Z,15.63
2023-05-14T12:53:10.015Z,15.47
2023-05-14T12:54:10.983Z,15.47
2023-05-14T12:55:10.962Z,15.48
2023-05-14T12:56:10.954Z,15.43
2023-05-14T12:57:10.941Z,15.31